Toronto, Ontario

11:49 AM EDT on septembrie 30, 2014 (GMT -0400)
Toronto-City Centre | Change Station
CLOSE
Current Station
Aeroport
Location: Toronto,
Elevation: 253 ft
Nearby Weather Stations

Elev 253 ft 43.63 °N, 79.40 °W | Updated 49 minutes ago

Mostly Cloudy
Cer în general noros
64 °F
Feels Like 64 °F
N
7
Vânt variabil Vânt from est

Today is forecast to be nearly the same temperature as yesterday.

astăzi
High -- | Low -- °F
--% Chance of Precip.
Ieri
High -- | Low -- °F
Precip. -- inch
7:13 AM 7:00 PM
Semilună în creştere, 37% visible
Presiunea 29.89 inch
Vizibilitatea 7.0 mile
Nori Cer în general noros 1800 ft
Punctul de rouă 61 °F
Umiditatea 88%
Precipitaţii 0.00 inch
Adâncimea zăpezii Not available.
UV 2 out of 12
Pollen Not available.
Calitatea aerului Not available.
Flu Activity Not available.
METAR CYTZ 301500Z AUTO 09006KT 7SM BKN018 18/16 A2989 RMK SLP121 DENSITY ALT 700FT

More Conditions Fewer Conditions

Presiunea 29.89 inch
Vizibilitatea 7.0 mile
Nori Cer în general noros 1800 ft
Punctul de rouă 61 °F
Umiditatea 88%
Precipitaţii 0.00 inch
Adâncimea zăpezii Not available.
UV 2 out of 12
Pollen Not available.
Calitatea aerului Not available.
Flu Activity Not available.
METAR CYTZ 301500Z AUTO 09006KT 7SM BKN018 18/16 A2989 RMK SLP121 DENSITY ALT 700FT

More Conditions Fewer Conditions

10-Day Weather Forecast

Almanac

Astronomie

Sep. 30, 2014 Răsărit Apus
Timpul Actual 7:13 AM EDT 7:00 PM EDT
Crepusculul Civil 6:45 AM EDT 7:28 PM EDT
Crepusculul nautic 6:12 AM EDT 8:02 PM EDT
Răsărit Astronomic 5:38 AM EDT 8:35 PM EDT
Luna 1:28 PM EDT 11:20 PM EDT
Durata zilei lumină 12h 43m
Lungimea zilei
11h 46m
Tomorrow will be 2m 59s shorter.
Semilună în creştere, 37% of the Moon is Illuminated
astăzi
Semilună în creştere
Oct 1
Primul pătrar
Oct 8
Lună plină
Oct 15
Ultimul pătrar
Oct 23
New

Extremele de azi

Country Highs Country Lows

Community

WunderPhotos

Upload Photos

1,757,671 photos uploaded!

Nearby

Calitatea aerului

Not available.

Adâncimea zapezii

Not available.

Earthquake Activity

Oraş Distance Mag. Time & Date
No recent earthquake activity has been reported nearby.
Minimum magnitude displayed is 2.5.

Coastal Water Temperatures

Locul Temperatura
No Stations Reporting

Nearby Weather Stations